Fort Stewart, GA

2:53 PM EDT on September 01, 2014 (GMT -0400)
Wright Army Air Field | Change Station
CLOSE
Current Station
Airport
Location: Ft. Stewart,
Elevation: 46 ft
Nearby Weather Stations

Elev 46 ft 31.89 °N, 81.56 °W | Updated 55 minutes ago

Mostly Cloudy
Mostly Cloudy
91 °F
Feels Like 99 °F
N
1
Wind Variable Wind from Variable

Today
High -- | Low -- °F
--% Chance of Precip.
Yesterday
High -- | Low -- °F
Precip. -- in
7:01 AM 7:50 PM
Waxing Crescent, 43% visible
Pressure 30.09 in
Visibility 10.0 miles
Clouds Mostly Cloudy 4200 ft
Mostly Cloudy 5500 ft
Heat Index 99 °F
Dew Point 72 °F
Humidity 54%
Rainfall 0.00 in
Snow Depth Not available.
UV 6 out of 12
Pollen 7.40 out of 12
Air Quality Not available.
Flu Activity Not available.
METAR KLHW 011758Z AUTO VRB01KT 10SM BKN042 BKN055 33/23 A3008 RMK AO2 SLP189 T03290225 10340 20222 57015

More Conditions Fewer Conditions

Pressure 30.09 in
Visibility 10.0 miles
Clouds Mostly Cloudy 4200 ft
Mostly Cloudy 5500 ft
Heat Index 99 °F
Dew Point 72 °F
Humidity 54%
Rainfall 0.00 in
Snow Depth Not available.
UV 6 out of 12
Pollen 7.40 out of 12
Air Quality Not available.
Flu Activity Not available.
METAR KLHW 011758Z AUTO VRB01KT 10SM BKN042 BKN055 33/23 A3008 RMK AO2 SLP189 T03290225 10340 20222 57015

More Conditions Fewer Conditions

10-Day Weather Forecast

Almanac

Astronomy

Sep. 01, 2014 Rise Set
Actual Time 7:01 AM EDT 7:50 PM EDT
Civil Twilight 6:37 AM EDT 8:15 PM EDT
Nautical Twilight 6:07 AM EDT 8:44 PM EDT
Astronomical Twilight 5:37 AM EDT 9:14 PM EDT
Moon 1:22 PM EDT No Moon Set
Length of Visible Light 13h 38m
Length of Day
12h 48m
Tomorrow will be 1m 52s shorter.
Waxing Crescent, 43% of the Moon is Illuminated
Today
Waxing Crescent
Sep 2
First Quarter
Sep 8
Full
Sep 15
Last Quarter
Sep 24
New

Today's Extremes

State Highs State Lows

Community

WunderPhotos

Upload Photos

1,749,359 photos uploaded!

Nearby

Snow Depth

Station Depth Elevation
No new snow has been reported.

Earthquake Activity

City Distance Mag. Time & Date
No recent earthquake activity has been reported nearby.
Minimum magnitude displayed is 2.5.

Coastal Water Temperatures

Place Temperature
No Stations Reporting

Nearby Weather Stations